PILOTS ONLINE: 272    ATC ONLINE: 25

Location

IATA MEI
City Meridian
Country  United States
Latitude 32° 19' 57" N
Longitude 88° 45' 6" W
Elevation 297 ft
Type Medium Airport

Weather

METAR
2014/07/12 04:58
KMEI 120458Z AUTO 00000KT 10SM CLR 23/22 A3014 RMK AO2 SLP201 T02330222
TAF
2014/07/12 06:24
TAF KMEI 120520Z 1206/1306 19009KT P6SM SCT040 SCT100 
     FM121000 00000KT 5SM BR SKC 
     FM121300 04004KT P6SM SCT040 
     FM121900 05006KT P6SM VCTS SCT040CB 
     FM130100 VRB03KT P6SM SCT040

Runways

01/19 10003 ft / 150 ft
04/22 4599 ft / 150 ft

Outbound flights

Inbound flights


Spotted incorrect airport information? Please login with your VATSIM ID.